createdAt,value
2022-09-02T00:00:54.405Z,90.39
2022-09-02T00:03:21.215Z,90.04
2022-09-02T00:05:48.074Z,90.02
2022-09-02T00:08:14.564Z,92.17
2022-09-02T00:10:43.965Z,87.67
2022-09-02T00:13:13.534Z,92.45
2022-09-02T00:15:40.122Z,90.70
2022-09-02T00:18:08.488Z,86.29
2022-09-02T00:20:44.625Z,84.98
2022-09-02T00:23:11.890Z,90.57
2022-09-02T00:25:39.896Z,89.73
2022-09-02T00:28:06.886Z,89.04
2022-09-02T00:30:34.473Z,87.51
2022-09-02T00:33:01.066Z,89.70
2022-09-02T00:35:29.466Z,93.08
2022-09-02T00:37:55.884Z,94.74
2022-09-02T00:40:23.408Z,92.94
2022-09-02T00:42:51.403Z,92.65
2022-09-02T00:45:19.249Z,92.12
2022-09-02T00:47:45.910Z,89.98
2022-09-02T00:50:16.537Z,90.26
2022-09-02T00:52:49.252Z,88.98
2022-09-02T00:55:23.032Z,89.50
2022-09-02T00:57:59.567Z,88.79
2022-09-02T01:00:34.386Z,88.73
2022-09-02T01:03:05.452Z,88.00
2022-09-02T01:05:35.860Z,88.27
2022-09-02T01:08:03.107Z,88.73
2022-09-02T01:10:34.761Z,86.32
2022-09-02T01:13:07.072Z,86.96
2022-09-02T01:15:37.295Z,85.59
2022-09-02T01:18:09.142Z,85.01
2022-09-02T01:20:35.655Z,84.25
2022-09-02T01:23:02.461Z,84.61
2022-09-02T01:25:33.033Z,81.29
2022-09-02T01:28:02.471Z,82.52
2022-09-02T01:30:30.499Z,83.17
2022-09-02T01:32:57.067Z,81.46
2022-09-02T01:35:23.874Z,82.92
2022-09-02T01:37:58.012Z,83.64
2022-09-02T01:40:27.678Z,84.08
2022-09-02T01:43:02.718Z,84.01
2022-09-02T01:45:30.172Z,84.18
2022-09-02T01:47:56.673Z,81.45
2022-09-02T01:50:23.271Z,82.39
2022-09-02T01:52:49.851Z,81.10
2022-09-02T01:55:16.276Z,81.08
2022-09-02T01:57:42.727Z,81.71
2022-09-02T02:00:11.885Z,80.47
2022-09-02T02:02:38.729Z,81.04
2022-09-02T02:05:05.446Z,81.27
2022-09-02T02:07:31.909Z,79.93
2022-09-02T02:09:58.316Z,80.39
2022-09-02T02:12:24.696Z,79.77
2022-09-02T02:14:51.142Z,80.14
2022-09-02T02:17:17.604Z,79.35
2022-09-02T02:19:43.988Z,80.86
2022-09-02T02:22:10.554Z,80.35
2022-09-02T02:24:37.027Z,80.05
2022-09-02T02:27:03.830Z,80.15
2022-09-02T02:29:30.285Z,79.53
2022-09-02T02:31:56.702Z,79.47
2022-09-02T02:34:23.398Z,79.05
2022-09-02T02:36:49.847Z,79.47
2022-09-02T02:39:17.029Z,79.66
2022-09-02T02:41:44.722Z,79.44
2022-09-02T02:44:11.504Z,80.11
2022-09-02T02:46:38.108Z,80.51
2022-09-02T02:49:05.873Z,80.21
2022-09-02T02:51:33.152Z,80.49
2022-09-02T02:54:00.343Z,80.70
2022-09-02T02:56:28.403Z,81.53
2022-09-02T02:58:55.061Z,81.91
2022-09-02T03:01:21.552Z,81.98
2022-09-02T03:03:48.210Z,81.57
2022-09-02T03:06:15.176Z,82.16
2022-09-02T03:08:41.892Z,82.45
2022-09-02T03:11:08.549Z,81.53
2022-09-02T03:13:35.385Z,82.46
2022-09-02T03:16:05.071Z,83.45
2022-09-02T03:18:32.775Z,83.91
2022-09-02T03:20:59.565Z,83.69
2022-09-02T03:23:26.703Z,83.86
2022-09-02T03:25:53.201Z,84.46
2022-09-02T03:28:19.858Z,85.14
2022-09-02T03:30:46.940Z,85.26
2022-09-02T03:33:13.384Z,86.00
2022-09-02T03:35:44.631Z,85.47
2022-09-02T03:38:12.423Z,86.09
2022-09-02T03:40:40.141Z,86.01
2022-09-02T03:43:06.648Z,86.62
2022-09-02T03:45:33.192Z,86.80
2022-09-02T03:48:00.051Z,85.75
2022-09-02T03:50:30.285Z,87.65
2022-09-02T03:52:57.555Z,86.95
2022-09-02T03:55:24.852Z,88.19
2022-09-02T03:57:51.567Z,87.58
2022-09-02T04:00:19.732Z,87.34
2022-09-02T04:02:50.013Z,87.29
2022-09-02T04:05:17.441Z,87.99
2022-09-02T04:07:46.947Z,87.96
2022-09-02T04:10:14.012Z,85.62
2022-09-02T04:12:41.066Z,88.45
2022-09-02T04:15:10.535Z,87.71
2022-09-02T04:17:41.622Z,87.35
2022-09-02T04:20:10.972Z,87.87
2022-09-02T04:22:37.567Z,88.17
2022-09-02T04:25:05.537Z,87.83
2022-09-02T04:27:32.008Z,86.67
2022-09-02T04:29:59.380Z,85.46
2022-09-02T04:32:26.514Z,87.04
2022-09-02T04:34:53.104Z,87.70
2022-09-02T04:37:19.707Z,86.47
2022-09-02T04:39:46.153Z,86.83
2022-09-02T04:42:12.696Z,88.14
2022-09-02T04:44:39.157Z,88.03
2022-09-02T04:47:05.604Z,87.67
2022-09-02T04:49:33.205Z,87.41
2022-09-02T04:52:00.591Z,87.00
2022-09-02T04:54:27.205Z,87.02
2022-09-02T04:56:53.857Z,87.47
2022-09-02T04:59:21.216Z,87.53
2022-09-02T05:01:50.284Z,87.46
2022-09-02T05:04:17.075Z,87.15
2022-09-02T05:06:44.707Z,87.50
2022-09-02T05:09:11.531Z,87.35
2022-09-02T05:11:38.678Z,87.03
2022-09-02T05:14:07.137Z,87.22
2022-09-02T05:16:40.058Z,87.16
2022-09-02T05:19:09.605Z,86.17
2022-09-02T05:21:41.034Z,86.84
2022-09-02T05:24:07.653Z,87.44
2022-09-02T05:26:36.014Z,87.50
2022-09-02T05:29:05.672Z,86.83
2022-09-02T05:31:32.772Z,86.07
2022-09-02T05:33:59.204Z,86.51
2022-09-02T05:36:25.733Z,86.31
2022-09-02T05:38:52.126Z,85.79
2022-09-02T05:41:24.092Z,85.75
2022-09-02T05:43:52.590Z,85.29
2022-09-02T05:46:22.323Z,83.93
2022-09-02T05:49:08.832Z,84.05
2022-09-02T05:51:45.747Z,82.95
2022-09-02T05:54:22.961Z,82.68
2022-09-02T05:56:55.421Z,83.37
2022-09-02T05:59:23.221Z,82.52
2022-09-02T06:01:50.589Z,82.42
2022-09-02T06:04:17.262Z,81.91
2022-09-02T06:06:43.701Z,81.23
2022-09-02T06:09:12.673Z,81.36
2022-09-02T06:11:44.551Z,81.40
2022-09-02T06:14:13.255Z,80.69
2022-09-02T06:16:41.049Z,80.19
2022-09-02T06:19:07.807Z,80.73
2022-09-02T06:21:35.947Z,80.79
2022-09-02T06:24:06.201Z,80.69
2022-09-02T06:26:33.115Z,80.45
2022-09-02T06:28:59.843Z,79.57
2022-09-02T06:31:26.380Z,79.26
2022-09-02T06:33:55.825Z,78.61
2022-09-02T06:36:28.234Z,77.79
2022-09-02T06:38:57.131Z,76.58
2022-09-02T06:41:28.342Z,75.45
2022-09-02T06:44:01.577Z,76.06
2022-09-02T06:46:32.188Z,76.93
2022-09-02T06:48:59.058Z,76.94
2022-09-02T06:51:38.735Z,76.21
2022-09-02T06:54:07.234Z,75.04
2022-09-02T06:56:34.867Z,75.85
2022-09-02T06:59:02.212Z,73.77
2022-09-02T07:01:31.150Z,74.57
2022-09-02T07:04:16.854Z,74.32
2022-09-02T07:06:47.845Z,73.72
2022-09-02T07:09:18.590Z,74.02
2022-09-02T07:11:48.649Z,74.63
2022-09-02T07:14:16.559Z,73.62
2022-09-02T07:16:49.146Z,74.05
2022-09-02T07:19:20.357Z,72.92
2022-09-02T07:21:48.998Z,72.83
2022-09-02T07:24:17.259Z,72.84
2022-09-02T07:26:44.695Z,71.86
2022-09-02T07:29:12.594Z,70.91
2022-09-02T07:31:42.545Z,71.85
2022-09-02T07:34:09.960Z,71.31
2022-09-02T07:36:36.857Z,69.51
2022-09-02T07:39:06.850Z,68.87
2022-09-02T07:41:34.192Z,68.15
2022-09-02T07:44:00.976Z,68.92
2022-09-02T07:46:29.955Z,68.77
2022-09-02T07:48:57.042Z,68.21
2022-09-02T07:51:24.030Z,67.10
2022-09-02T07:53:55.558Z,67.51
2022-09-02T07:56:21.963Z,65.48
2022-09-02T07:58:48.441Z,65.76
2022-09-02T08:01:15.385Z,63.68
2022-09-02T08:03:44.863Z,62.42
2022-09-02T08:06:13.777Z,61.65
2022-09-02T08:08:42.114Z,58.62
2022-09-02T08:11:08.786Z,56.74
2022-09-02T08:13:36.420Z,54.52
2022-09-02T08:16:04.208Z,54.44
2022-09-02T08:18:31.319Z,54.26
2022-09-02T08:20:57.731Z,55.31
2022-09-02T08:23:36.618Z,54.41
2022-09-02T08:26:04.248Z,55.68
2022-09-02T08:28:32.108Z,53.35
2022-09-02T08:30:59.329Z,55.08
2022-09-02T08:33:26.044Z,53.95
2022-09-02T08:35:52.461Z,51.91
2022-09-02T08:38:18.915Z,51.48
2022-09-02T08:40:45.583Z,53.02
2022-09-02T08:43:31.372Z,52.90
2022-09-02T08:46:04.079Z,53.17
2022-09-02T08:48:42.689Z,53.46
2022-09-02T08:51:17.018Z,53.98
2022-09-02T08:53:54.888Z,55.28
2022-09-02T08:56:21.315Z,55.37
2022-09-02T08:58:56.609Z,53.54
2022-09-02T09:01:34.705Z,53.30
2022-09-02T09:04:23.084Z,52.90
2022-09-02T09:07:20.606Z,52.01
2022-09-02T09:10:05.167Z,52.22
2022-09-02T09:12:47.754Z,52.92
2022-09-02T09:15:38.613Z,51.55
2022-09-02T09:18:11.811Z,52.03
2022-09-02T09:20:40.533Z,50.72
2022-09-02T09:23:24.479Z,50.68
2022-09-02T09:25:56.077Z,50.83
2022-09-02T09:28:22.657Z,49.49
2022-09-02T09:30:49.322Z,50.23
2022-09-02T09:33:22.222Z,50.34
2022-09-02T09:35:52.033Z,49.29
2022-09-02T09:38:38.500Z,49.37
2022-09-02T09:41:17.585Z,48.28
2022-09-02T09:43:44.278Z,47.79
2022-09-02T09:46:29.405Z,48.90
2022-09-02T09:48:55.814Z,48.86
2022-09-02T09:51:22.309Z,48.25
2022-09-02T09:53:48.920Z,49.44
2022-09-02T09:56:18.563Z,47.57
2022-09-02T09:58:47.525Z,48.82
2022-09-02T10:01:31.477Z,47.65
2022-09-02T10:04:32.192Z,48.45
2022-09-02T10:06:55.161Z,47.33
2022-09-02T10:09:21.496Z,46.75
2022-09-02T10:12:10.843Z,47.33
2022-09-02T10:14:45.906Z,46.86
2022-09-02T10:17:31.044Z,46.10
2022-09-02T10:20:25.165Z,46.38
2022-09-02T10:23:10.991Z,47.51
2022-09-02T10:26:27.751Z,46.76
2022-09-02T10:29:03.907Z,45.04
2022-09-02T10:31:49.854Z,45.25
2022-09-02T10:34:31.272Z,45.76
2022-09-02T10:36:57.582Z,46.11
2022-09-02T10:39:44.225Z,46.34
2022-09-02T10:42:27.953Z,45.12
2022-09-02T10:45:03.992Z,44.41
2022-09-02T10:47:37.282Z,44.64
2022-09-02T10:50:06.661Z,44.32
2022-09-02T10:53:09.510Z,44.53
2022-09-02T10:55:58.476Z,44.79
2022-09-02T10:58:46.662Z,43.68
2022-09-02T11:01:22.431Z,44.08
2022-09-02T11:04:03.852Z,43.67
2022-09-02T11:06:58.850Z,43.95
2022-09-02T11:09:49.099Z,43.78
2022-09-02T11:12:33.379Z,43.61
2022-09-02T11:15:17.396Z,42.11
2022-09-02T11:18:00.723Z,42.94
2022-09-02T11:20:56.530Z,43.09
2022-09-02T11:23:34.520Z,42.15
2022-09-02T11:26:16.400Z,41.88
2022-09-02T11:28:58.073Z,42.40
2022-09-02T11:31:35.709Z,42.25
2022-09-02T11:34:26.023Z,42.75
2022-09-02T11:36:52.764Z,41.81
2022-09-02T11:39:51.859Z,41.58
2022-09-02T11:42:45.891Z,41.96
2022-09-02T11:45:27.582Z,41.60
2022-09-02T11:48:24.335Z,41.00
2022-09-02T11:51:06.161Z,40.99
2022-09-02T11:53:40.553Z,41.45
2022-09-02T11:56:24.484Z,40.92
2022-09-02T11:58:53.022Z,42.35
2022-09-02T12:01:44.068Z,40.33
2022-09-02T12:07:08.758Z,39.24
2022-09-02T12:09:53.435Z,39.74
2022-09-02T12:12:41.499Z,38.97
2022-09-02T12:15:17.544Z,39.16
2022-09-02T12:17:50.142Z,37.54
2022-09-02T12:20:38.832Z,38.21
2022-09-02T12:23:07.046Z,36.84
2022-09-02T12:25:38.540Z,37.64
2022-09-02T12:28:24.073Z,38.00
2022-09-02T12:30:54.738Z,37.75
2022-09-02T12:33:31.487Z,36.93
2022-09-02T12:35:59.494Z,37.55
2022-09-02T12:38:27.612Z,38.10
2022-09-02T12:40:59.974Z,35.47
2022-09-02T12:43:32.928Z,35.56
2022-09-02T12:46:28.670Z,35.95
2022-09-02T12:49:05.611Z,35.44
2022-09-02T12:51:51.720Z,35.62
2022-09-02T12:54:19.544Z,36.03
2022-09-02T12:56:50.708Z,35.03
2022-09-02T12:59:35.342Z,34.35
2022-09-02T13:02:31.700Z,34.09
2022-09-02T13:05:15.540Z,33.48
2022-09-02T13:07:45.661Z,33.71
2022-09-02T13:10:28.402Z,32.75
2022-09-02T13:13:09.800Z,32.62
2022-09-02T13:16:02.575Z,31.69
2022-09-02T13:18:55.305Z,32.02
2022-09-02T13:21:45.756Z,31.28
2022-09-02T13:24:44.042Z,30.22
2022-09-02T13:27:28.996Z,30.57
2022-09-02T13:30:33.909Z,30.69
2022-09-02T13:33:08.886Z,29.07
2022-09-02T13:35:38.791Z,31.10
2022-09-02T13:38:05.819Z,30.25
2022-09-02T13:40:35.283Z,31.29
2022-09-02T13:43:12.322Z,28.95
2022-09-02T13:45:39.594Z,28.45
2022-09-02T13:48:09.823Z,28.47
2022-09-02T13:50:37.147Z,27.48
2022-09-02T13:55:56.187Z,27.00
2022-09-02T13:58:28.565Z,27.30
2022-09-02T14:01:01.722Z,28.53
2022-09-02T14:03:32.647Z,26.66
2022-09-02T14:06:00.765Z,28.29
2022-09-02T14:08:29.112Z,27.38
2022-09-02T14:10:56.623Z,27.96
2022-09-02T14:13:23.602Z,27.35
2022-09-02T14:15:50.269Z,26.89
2022-09-02T14:18:19.151Z,26.47
2022-09-02T14:21:03.786Z,27.32
2022-09-02T14:23:35.543Z,27.52
2022-09-02T14:26:03.729Z,27.80
2022-09-02T14:28:33.228Z,24.95
2022-09-02T14:31:02.794Z,26.32
2022-09-02T14:33:41.198Z,25.79
2022-09-02T14:36:07.953Z,25.40
2022-09-02T14:38:49.179Z,25.72
2022-09-02T14:41:18.408Z,25.77
2022-09-02T14:43:49.438Z,24.66
2022-09-02T14:46:35.804Z,24.43
2022-09-02T14:49:07.649Z,26.08
2022-09-02T14:51:39.910Z,24.15
2022-09-02T14:54:07.366Z,25.52
2022-09-02T14:56:51.355Z,27.58
2022-09-02T14:59:18.997Z,30.97
2022-09-02T15:01:50.519Z,31.43
2022-09-02T15:04:19.314Z,33.05
2022-09-02T15:06:47.148Z,32.55
2022-09-02T15:09:16.585Z,32.43
2022-09-02T15:11:47.975Z,32.89
2022-09-02T15:14:14.386Z,32.25
2022-09-02T15:16:41.170Z,32.62
2022-09-02T15:19:07.706Z,33.04
2022-09-02T15:21:34.124Z,33.14
2022-09-02T15:24:00.583Z,32.73
2022-09-02T15:26:27.080Z,32.30
2022-09-02T15:28:55.869Z,32.30
2022-09-02T15:31:22.353Z,33.40
2022-09-02T15:33:51.681Z,33.38
2022-09-02T15:36:19.121Z,33.80
2022-09-02T15:38:45.493Z,33.62
2022-09-02T15:41:13.085Z,32.82
2022-09-02T15:43:39.581Z,33.52
2022-09-02T15:46:26.419Z,33.38
2022-09-02T15:48:53.852Z,33.87
2022-09-02T15:51:23.445Z,33.33
2022-09-02T15:54:07.364Z,33.21
2022-09-02T15:56:36.161Z,34.80
2022-09-02T15:59:09.141Z,34.66
2022-09-02T16:01:38.559Z,34.62
2022-09-02T16:04:05.742Z,35.54
2022-09-02T16:06:35.952Z,35.73
2022-09-02T16:09:03.312Z,35.78
2022-09-02T16:11:29.779Z,35.11
2022-09-02T16:13:56.186Z,35.26
2022-09-02T16:16:22.686Z,36.11
2022-09-02T16:18:53.493Z,35.91
2022-09-02T16:21:20.790Z,36.41
2022-09-02T16:23:48.009Z,36.20
2022-09-02T16:26:23.969Z,36.95
2022-09-02T16:28:52.899Z,37.08
2022-09-02T16:31:20.789Z,36.88
2022-09-02T16:34:22.914Z,37.67
2022-09-02T16:36:53.161Z,37.30
2022-09-02T16:39:21.013Z,37.44
2022-09-02T16:41:53.121Z,38.41
2022-09-02T16:44:24.174Z,37.60
2022-09-02T16:46:51.560Z,36.95
2022-09-02T16:49:20.537Z,37.32
2022-09-02T16:51:48.598Z,37.38
2022-09-02T16:54:17.784Z,36.68
2022-09-02T16:56:49.513Z,36.85
2022-09-02T16:59:15.936Z,36.85
2022-09-02T17:01:42.632Z,37.10
2022-09-02T17:04:09.139Z,36.45
2022-09-02T17:06:41.303Z,36.01
2022-09-02T17:09:08.972Z,36.19
2022-09-02T17:11:37.768Z,36.02
2022-09-02T17:14:06.737Z,36.58
2022-09-02T17:16:36.457Z,37.39
2022-09-02T17:19:03.831Z,38.19
2022-09-02T17:21:35.153Z,38.28
2022-09-02T17:24:04.176Z,38.77
2022-09-02T17:26:33.574Z,39.21
2022-09-02T17:29:00.981Z,39.89
2022-09-02T17:31:33.339Z,39.61
2022-09-02T17:34:03.901Z,40.39
2022-09-02T17:36:33.474Z,41.17
2022-09-02T17:39:05.575Z,41.64
2022-09-02T17:41:50.659Z,41.25
2022-09-02T17:44:17.290Z,41.69
2022-09-02T17:46:45.290Z,41.64
2022-09-02T17:49:17.064Z,42.28
2022-09-02T17:51:44.474Z,42.39
2022-09-02T17:54:12.113Z,42.26
2022-09-02T17:56:57.290Z,42.54
2022-09-02T17:59:38.737Z,43.61
2022-09-02T18:02:26.918Z,43.25
2022-09-02T18:05:17.084Z,45.36
2022-09-02T18:07:53.511Z,45.41
2022-09-02T18:10:20.341Z,44.67
2022-09-02T18:12:46.721Z,44.66
2022-09-02T18:15:17.509Z,47.35
2022-09-02T18:17:49.990Z,45.36
2022-09-02T18:20:44.091Z,46.92
2022-09-02T18:23:31.819Z,45.67
2022-09-02T18:26:10.369Z,45.18
2022-09-02T18:29:09.699Z,44.80
2022-09-02T18:31:48.861Z,45.56
2022-09-02T18:34:35.036Z,46.18
2022-09-02T18:37:13.844Z,48.02
2022-09-02T18:40:17.787Z,47.70
2022-09-02T18:42:54.438Z,46.56
2022-09-02T18:45:41.396Z,46.83
2022-09-02T18:48:14.636Z,46.09
2022-09-02T18:50:53.564Z,49.52
2022-09-02T18:53:28.884Z,49.15
2022-09-02T18:55:57.651Z,50.74
2022-09-02T18:58:39.632Z,49.72
2022-09-02T19:01:17.036Z,51.25
2022-09-02T19:03:43.629Z,49.18
2022-09-02T19:06:21.694Z,51.34
2022-09-02T19:08:55.102Z,49.70
2022-09-02T19:11:21.764Z,48.38
2022-09-02T19:13:55.529Z,49.17
2022-09-02T19:16:33.068Z,50.71
2022-09-02T19:18:59.524Z,49.22
2022-09-02T19:21:38.035Z,52.22
2022-09-02T19:24:09.079Z,52.48
2022-09-02T19:26:37.607Z,51.03
2022-09-02T19:29:07.130Z,49.19
2022-09-02T19:31:35.336Z,49.09
2022-09-02T19:34:04.187Z,51.73
2022-09-02T19:36:32.810Z,50.12
2022-09-02T19:39:00.072Z,50.51
2022-09-02T19:41:27.949Z,51.90
2022-09-02T19:43:54.987Z,49.80
2022-09-02T19:47:04.211Z,49.30
2022-09-02T19:49:08.840Z,50.25
2022-09-02T19:51:35.242Z,50.98
2022-09-02T19:54:01.771Z,51.46
2022-09-02T19:56:28.140Z,50.64
2022-09-02T19:58:54.656Z,51.93
2022-09-02T20:01:21.120Z,52.70
2022-09-02T20:03:47.672Z,52.68
2022-09-02T20:06:14.080Z,50.84
2022-09-02T20:08:40.525Z,53.15
2022-09-02T20:11:07.315Z,52.77
2022-09-02T20:13:40.153Z,51.43
2022-09-02T20:16:16.613Z,53.72
2022-09-02T20:18:46.206Z,52.67
2022-09-02T20:21:19.820Z,52.15
2022-09-02T20:23:46.380Z,53.60
2022-09-02T20:26:31.071Z,52.97
2022-09-02T20:29:03.500Z,55.20
2022-09-02T20:31:52.461Z,53.84
2022-09-02T20:34:45.477Z,54.71
2022-09-02T20:37:54.333Z,53.85
2022-09-02T20:40:46.274Z,52.70
2022-09-02T20:43:21.610Z,53.30
2022-09-02T20:46:01.951Z,54.54
2022-09-02T20:48:39.789Z,55.29
2022-09-02T20:51:23.698Z,54.67
2022-09-02T20:54:21.197Z,56.21
2022-09-02T20:56:57.392Z,53.53
2022-09-02T21:00:02.173Z,57.32
2022-09-02T21:02:35.223Z,54.35
2022-09-02T21:05:11.055Z,54.25
2022-09-02T21:07:45.386Z,54.08
2022-09-02T21:10:17.965Z,57.02
2022-09-02T21:12:59.225Z,54.85
2022-09-02T21:15:33.184Z,54.04
2022-09-02T21:18:21.135Z,53.51
2022-09-02T21:21:01.443Z,54.07
2022-09-02T21:23:36.128Z,54.10
2022-09-02T21:26:33.871Z,54.22
2022-09-02T21:29:06.283Z,54.76
2022-09-02T21:31:42.309Z,55.88
2022-09-02T21:34:35.345Z,55.36
2022-09-02T21:37:03.077Z,54.40
2022-09-02T21:39:34.617Z,55.04
2022-09-02T21:42:07.264Z,55.34
2022-09-02T21:44:42.851Z,56.36
2022-09-02T21:47:35.224Z,60.33
2022-09-02T21:50:09.578Z,60.17
2022-09-02T21:52:56.867Z,60.95
2022-09-02T21:55:57.135Z,59.71
2022-09-02T21:58:42.498Z,60.58
2022-09-02T22:01:25.909Z,60.51
2022-09-02T22:04:03.979Z,60.44
2022-09-02T22:06:42.037Z,58.46
2022-09-02T22:09:17.667Z,59.20
2022-09-02T22:11:54.332Z,58.98
2022-09-02T22:14:59.052Z,57.77
2022-09-02T22:17:51.523Z,56.85
2022-09-02T22:20:23.069Z,56.19
2022-09-02T22:22:57.261Z,56.57
2022-09-02T22:25:24.369Z,56.41
2022-09-02T22:28:04.923Z,56.11
2022-09-02T22:30:35.461Z,55.82
2022-09-02T22:33:12.275Z,55.79
2022-09-02T22:35:54.037Z,56.09
2022-09-02T22:38:27.671Z,55.56
2022-09-02T22:41:39.006Z,56.18
2022-09-02T22:44:05.325Z,56.76
2022-09-02T22:47:02.429Z,55.96
2022-09-02T22:49:52.323Z,55.88
2022-09-02T22:52:47.328Z,56.54
2022-09-02T22:55:15.069Z,57.81
2022-09-02T22:57:52.024Z,58.10
2022-09-02T23:00:18.608Z,57.20
2022-09-02T23:02:51.182Z,58.35
2022-09-02T23:06:03.154Z,58.75
2022-09-02T23:08:30.697Z,58.60
2022-09-02T23:10:58.825Z,57.79
2022-09-02T23:13:45.458Z,59.20
2022-09-02T23:16:26.341Z,58.83
2022-09-02T23:19:12.381Z,58.07
2022-09-02T23:22:01.333Z,58.69
2022-09-02T23:24:56.070Z,58.13
2022-09-02T23:27:36.161Z,58.49
2022-09-02T23:30:03.597Z,59.55
2022-09-02T23:32:46.383Z,57.81
2022-09-02T23:35:27.029Z,59.51
2022-09-02T23:38:46.881Z,60.46
2022-09-02T23:41:14.484Z,59.96
2022-09-02T23:43:43.843Z,61.86
2022-09-02T23:46:17.619Z,61.04
2022-09-02T23:49:05.459Z,62.60
2022-09-02T23:51:49.024Z,60.48
2022-09-02T23:54:21.112Z,60.14
2022-09-02T23:57:02.514Z,62.60
2022-09-02T23:59:48.044Z,64.20
